createdAt,value
2024-04-25T00:02:20.014Z,96934.09
2024-04-25T00:04:53.180Z,96933.58
2024-04-25T00:07:26.023Z,96936.95
2024-04-25T00:09:58.996Z,96939.23
2024-04-25T00:12:31.912Z,96942.70
2024-04-25T00:15:05.346Z,96943.65
2024-04-25T00:17:38.554Z,96945.58
2024-04-25T00:20:13.189Z,96944.70
2024-04-25T00:22:46.052Z,96945.60
2024-04-25T00:25:19.344Z,96941.48
2024-04-25T00:27:52.623Z,96941.67
2024-04-25T00:30:26.040Z,96940.79
2024-04-25T00:32:59.726Z,96940.00
2024-04-25T00:35:32.854Z,96937.70
2024-04-25T00:38:06.406Z,96937.54
2024-04-25T00:40:39.234Z,96938.65
2024-04-25T00:43:12.396Z,96941.70
2024-04-25T00:45:45.184Z,96942.52
2024-04-25T00:48:18.754Z,96945.27
2024-04-25T00:50:52.049Z,96945.27
2024-04-25T00:53:25.525Z,96952.98
2024-04-25T00:56:00.448Z,96953.23
2024-04-25T00:58:35.598Z,96952.98
2024-04-25T01:01:12.531Z,96957.95
2024-04-25T01:03:43.612Z,96955.61
2024-04-25T01:06:22.358Z,96951.53
2024-04-25T01:08:55.550Z,96942.08
2024-04-25T01:11:29.040Z,96944.02
2024-04-25T01:14:02.273Z,96947.05
2024-04-25T01:16:36.458Z,96947.89
2024-04-25T01:19:09.241Z,96954.28
2024-04-25T01:21:42.180Z,96950.48
2024-04-25T01:24:15.279Z,96947.99
2024-04-25T01:26:48.090Z,96949.16
2024-04-25T01:29:21.126Z,96947.38
2024-04-25T01:31:53.930Z,96949.20
2024-04-25T01:34:28.118Z,96950.92
2024-04-25T01:37:01.164Z,96952.89
2024-04-25T01:39:33.804Z,96952.56
2024-04-25T01:42:06.409Z,96956.20
2024-04-25T01:44:39.476Z,96957.95
2024-04-25T01:47:12.870Z,96963.93
2024-04-25T01:49:45.959Z,96964.60
2024-04-25T01:52:19.199Z,96965.04
2024-04-25T01:54:52.038Z,96959.61
2024-04-25T01:57:25.140Z,96951.37
2024-04-25T01:59:57.670Z,96951.45
2024-04-25T02:02:30.683Z,96949.58
2024-04-25T02:05:04.196Z,96945.23
2024-04-25T02:07:36.973Z,96945.35
2024-04-25T02:10:11.194Z,96943.81
2024-04-25T02:12:43.993Z,96947.16
2024-04-25T02:15:17.143Z,96945.48
2024-04-25T02:17:50.182Z,96944.90
2024-04-25T02:20:40.522Z,96941.89
2024-04-25T02:23:35.827Z,96942.02
2024-04-25T02:26:12.127Z,96941.34
2024-04-25T02:28:44.964Z,96941.50
2024-04-25T02:31:21.203Z,96940.33
2024-04-25T02:33:54.066Z,96941.00
2024-04-25T02:36:26.758Z,96943.73
2024-04-25T02:38:59.680Z,96947.02
2024-04-25T02:41:32.732Z,96948.79
2024-04-25T02:44:05.908Z,96953.30
2024-04-25T02:46:38.572Z,96950.81
2024-04-25T02:49:11.223Z,96955.08
2024-04-25T02:51:44.049Z,96948.49
2024-04-25T02:54:16.772Z,96948.34
2024-04-25T02:56:49.635Z,96945.84
2024-04-25T02:59:22.354Z,96945.41
2024-04-25T03:01:55.010Z,96942.59
2024-04-25T03:04:27.710Z,96940.39
2024-04-25T03:07:00.384Z,96939.36
2024-04-25T03:09:33.503Z,96942.52
2024-04-25T03:12:06.269Z,96941.30
2024-04-25T03:14:39.224Z,96944.30
2024-04-25T03:17:12.220Z,96942.59
2024-04-25T03:19:44.926Z,96940.89
2024-04-25T03:22:17.553Z,96937.98
2024-04-25T03:24:50.290Z,96936.55
2024-04-25T03:27:22.840Z,96934.64
2024-04-25T03:29:59.547Z,96942.51
2024-04-25T03:32:32.295Z,96942.20
2024-04-25T03:35:05.177Z,96947.41
2024-04-25T03:37:38.093Z,96946.11
2024-04-25T03:40:12.596Z,96948.23
2024-04-25T03:42:46.069Z,96948.37
2024-04-25T03:45:19.111Z,96944.17
2024-04-25T03:47:52.073Z,96943.02
2024-04-25T03:50:26.030Z,96943.84
2024-04-25T03:52:58.813Z,96945.59
2024-04-25T03:55:31.702Z,96951.48
2024-04-25T03:58:04.602Z,96948.59
2024-04-25T04:00:37.547Z,96946.56
2024-04-25T04:03:10.749Z,96952.39
2024-04-25T04:05:43.966Z,96943.92
2024-04-25T04:08:17.280Z,96943.36
2024-04-25T04:10:49.945Z,96944.15
2024-04-25T04:13:22.585Z,96948.73
2024-04-25T04:15:56.014Z,96952.55
2024-04-25T04:18:29.664Z,96944.01
2024-04-25T04:21:02.381Z,96941.98
2024-04-25T04:23:35.620Z,96941.69
2024-04-25T04:26:08.591Z,96942.20
2024-04-25T04:28:41.116Z,96940.38
2024-04-25T04:31:13.846Z,96942.94
2024-04-25T04:33:46.484Z,96941.77
2024-04-25T04:36:19.443Z,96943.81
2024-04-25T04:38:52.268Z,96943.61
2024-04-25T04:41:25.079Z,96945.40
2024-04-25T04:43:57.766Z,96944.36
2024-04-25T04:46:30.467Z,96942.46
2024-04-25T04:49:03.257Z,96939.05
2024-04-25T04:51:36.049Z,96941.89
2024-04-25T04:54:09.446Z,96946.73
2024-04-25T04:56:45.506Z,96945.81
2024-04-25T04:59:18.277Z,96945.53
2024-04-25T05:01:51.532Z,96939.74
2024-04-25T05:04:25.345Z,96937.27
2024-04-25T05:06:59.194Z,96940.23
2024-04-25T05:09:35.244Z,96938.61
2024-04-25T05:12:08.777Z,96936.52
2024-04-25T05:14:41.738Z,96930.06
2024-04-25T05:17:15.723Z,96925.17
2024-04-25T05:19:48.575Z,96924.06
2024-04-25T05:22:21.691Z,96923.05
2024-04-25T05:24:55.332Z,96921.77
2024-04-25T05:27:28.331Z,96919.31
2024-04-25T05:30:01.546Z,96916.97
2024-04-25T05:32:35.984Z,96917.11
2024-04-25T05:35:07.682Z,96918.36
2024-04-25T05:37:41.093Z,96913.52
2024-04-25T05:40:15.175Z,96912.56
2024-04-25T05:42:48.835Z,96905.95
2024-04-25T05:45:22.441Z,96903.54
2024-04-25T05:47:55.480Z,96901.95
2024-04-25T05:50:29.093Z,96898.30
2024-04-25T05:53:05.334Z,96892.34
2024-04-25T05:55:41.740Z,96890.74
2024-04-25T05:58:16.075Z,96885.15
2024-04-25T06:00:49.464Z,96881.88
2024-04-25T06:03:22.342Z,96880.92
2024-04-25T06:05:55.481Z,96875.09
2024-04-25T06:08:28.253Z,96869.61
2024-04-25T06:11:01.117Z,96864.55
2024-04-25T06:13:34.076Z,96857.09
2024-04-25T06:16:07.735Z,96856.64
2024-04-25T06:18:40.697Z,96853.08
2024-04-25T06:21:13.431Z,96856.38
2024-04-25T06:23:46.311Z,96854.11
2024-04-25T06:26:19.366Z,96856.82
2024-04-25T06:28:52.007Z,96857.16
2024-04-25T06:31:26.653Z,96852.71
2024-04-25T06:34:04.148Z,96852.49
2024-04-25T06:36:36.687Z,96853.48
2024-04-25T06:39:11.065Z,96848.14
2024-04-25T06:41:51.058Z,96844.17
2024-04-25T06:44:32.032Z,96843.10
2024-04-25T06:47:13.205Z,96844.50
2024-04-25T06:49:46.178Z,96847.35
2024-04-25T06:52:21.718Z,96846.06
2024-04-25T06:54:54.407Z,96842.98
2024-04-25T06:57:32.411Z,96845.30
2024-04-25T07:00:05.349Z,96840.17
2024-04-25T07:02:38.247Z,96836.98
2024-04-25T07:05:11.338Z,96833.94
2024-04-25T07:07:44.107Z,96829.38
2024-04-25T07:10:17.656Z,96825.98
2024-04-25T07:12:50.811Z,96826.46
2024-04-25T07:15:26.255Z,96828.23
2024-04-25T07:18:00.709Z,96827.14
2024-04-25T07:20:34.022Z,96827.26
2024-04-25T07:23:06.875Z,96818.63
2024-04-25T07:25:39.876Z,96823.94
2024-04-25T07:28:14.960Z,96821.19
2024-04-25T07:30:48.893Z,96815.65
2024-04-25T07:33:21.713Z,96812.19
2024-04-25T07:35:54.706Z,96807.81
2024-04-25T07:38:27.574Z,96800.73
2024-04-25T07:41:01.790Z,96802.89
2024-04-25T07:43:35.089Z,96798.63
2024-04-25T07:46:11.068Z,96793.93
2024-04-25T07:48:45.896Z,96794.63
2024-04-25T07:51:19.310Z,96795.50
2024-04-25T07:53:52.078Z,96792.59
2024-04-25T07:56:24.844Z,96789.91
2024-04-25T07:58:57.773Z,96791.02
2024-04-25T08:01:30.937Z,96789.38
2024-04-25T08:04:03.602Z,96785.33
2024-04-25T08:06:37.006Z,96785.30
2024-04-25T08:09:09.908Z,96776.69
2024-04-25T08:11:42.709Z,96778.27
2024-04-25T08:14:16.044Z,96769.25
2024-04-25T08:16:49.008Z,96764.84
2024-04-25T08:19:21.674Z,96760.04
2024-04-25T08:21:54.513Z,96756.80
2024-04-25T08:24:27.397Z,96757.40
2024-04-25T08:27:00.501Z,96753.83
2024-04-25T08:29:33.239Z,96754.26
2024-04-25T08:32:06.040Z,96751.23
2024-04-25T08:34:39.238Z,96753.08
2024-04-25T08:37:12.010Z,96745.52
2024-04-25T08:39:45.282Z,96739.98
2024-04-25T08:42:21.006Z,96739.05
2024-04-25T08:44:52.382Z,96736.75
2024-04-25T08:47:25.377Z,96732.84
2024-04-25T08:49:59.636Z,96730.98
2024-04-25T08:52:33.982Z,96732.96
2024-04-25T08:55:07.775Z,96729.73
2024-04-25T08:57:40.955Z,96720.48
2024-04-25T09:00:15.620Z,96722.23
2024-04-25T09:02:52.255Z,96717.17
2024-04-25T09:05:26.732Z,96720.95
2024-04-25T09:07:59.907Z,96715.84
2024-04-25T09:10:42.602Z,96714.66
2024-04-25T09:13:16.613Z,96707.14
2024-04-25T09:15:50.095Z,96709.28
2024-04-25T09:18:23.666Z,96703.95
2024-04-25T09:20:56.325Z,96694.95
2024-04-25T09:23:29.570Z,96689.11
2024-04-25T09:26:02.379Z,96690.07
2024-04-25T09:28:39.463Z,96691.13
2024-04-25T09:31:14.229Z,96696.21
2024-04-25T09:33:47.770Z,96697.96
2024-04-25T09:36:20.814Z,96690.60
2024-04-25T09:38:54.167Z,96689.45
2024-04-25T09:41:27.000Z,96687.62
2024-04-25T09:44:00.415Z,96688.48
2024-04-25T09:46:38.836Z,96689.47
2024-04-25T09:49:13.507Z,96687.66
2024-04-25T09:51:52.360Z,96686.81
2024-04-25T09:54:27.523Z,96682.48
2024-04-25T09:57:06.198Z,96679.25
2024-04-25T09:59:46.125Z,96676.56
2024-04-25T10:02:21.130Z,96672.36
2024-04-25T10:04:55.785Z,96671.13
2024-04-25T10:07:29.742Z,96664.44
2024-04-25T10:10:03.225Z,96663.91
2024-04-25T10:12:36.511Z,96660.67
2024-04-25T10:15:09.846Z,96658.93
2024-04-25T10:17:42.926Z,96651.70
2024-04-25T10:20:23.327Z,96649.41
2024-04-25T10:23:05.890Z,96649.73
2024-04-25T10:25:39.270Z,96640.74
2024-04-25T10:28:12.972Z,96646.27
2024-04-25T10:30:55.847Z,96643.44
2024-04-25T10:33:28.477Z,96644.56
2024-04-25T10:36:08.677Z,96639.66
2024-04-25T10:38:46.500Z,96634.64
2024-04-25T10:41:36.983Z,96632.84
2024-04-25T10:44:12.800Z,96635.52
2024-04-25T10:46:43.984Z,96632.16
2024-04-25T10:49:17.238Z,96627.22
2024-04-25T10:51:49.910Z,96626.61
2024-04-25T10:54:22.668Z,96620.97
2024-04-25T10:56:55.270Z,96618.48
2024-04-25T10:59:34.678Z,96616.55
2024-04-25T11:02:10.181Z,96611.33
2024-04-25T11:04:44.380Z,96605.11
2024-04-25T11:07:20.138Z,96605.44
2024-04-25T11:09:52.827Z,96599.80
2024-04-25T11:12:25.587Z,96599.13
2024-04-25T11:14:58.535Z,96595.56
2024-04-25T11:17:37.226Z,96597.36
2024-04-25T11:20:16.301Z,96592.34
2024-04-25T11:25:22.989Z,96587.98
2024-04-25T11:27:56.189Z,96586.42
2024-04-25T11:30:29.272Z,96586.15
2024-04-25T11:33:07.314Z,96583.07
2024-04-25T11:35:40.093Z,96580.20
2024-04-25T11:38:17.586Z,96576.80
2024-04-25T11:40:52.020Z,96579.70
2024-04-25T11:43:27.508Z,96573.08
2024-04-25T11:46:00.284Z,96571.02
2024-04-25T11:48:32.967Z,96565.77
2024-04-25T11:51:05.895Z,96567.42
2024-04-25T11:53:38.835Z,96565.04
2024-04-25T11:56:11.955Z,96562.33
2024-04-25T11:58:44.731Z,96566.05
2024-04-25T12:01:17.946Z,96567.17
2024-04-25T12:03:53.398Z,96563.34
2024-04-25T12:06:28.485Z,96558.98
2024-04-25T12:09:02.782Z,96550.37
2024-04-25T12:11:39.829Z,96551.85
2024-04-25T12:14:12.867Z,96547.34
2024-04-25T12:16:46.954Z,96554.40
2024-04-25T12:19:21.609Z,96561.85
2024-04-25T12:21:54.570Z,96561.73
2024-04-25T12:24:27.243Z,96556.25
2024-04-25T12:27:00.121Z,96556.41
2024-04-25T12:29:33.332Z,96557.41
2024-04-25T12:32:08.295Z,96557.46
2024-04-25T12:34:41.153Z,96552.11
2024-04-25T12:37:14.019Z,96551.25
2024-04-25T12:39:46.886Z,96554.39
2024-04-25T12:42:24.153Z,96550.73
2024-04-25T12:44:57.064Z,96553.87
2024-04-25T12:47:30.166Z,96553.19
2024-04-25T12:50:03.207Z,96553.77
2024-04-25T12:52:36.010Z,96555.89
2024-04-25T12:55:09.169Z,96552.06
2024-04-25T12:57:42.134Z,96545.78
2024-04-25T13:00:16.835Z,96549.88
2024-04-25T13:02:50.387Z,96547.23
2024-04-25T13:05:23.087Z,96547.13
2024-04-25T13:07:56.551Z,96538.08
2024-04-25T13:10:32.423Z,96542.85
2024-04-25T13:13:05.173Z,96544.52
2024-04-25T13:15:38.614Z,96540.17
2024-04-25T13:18:11.833Z,96543.90
2024-04-25T13:20:46.886Z,96542.98
2024-04-25T13:23:20.149Z,96544.38
2024-04-25T13:25:52.955Z,96540.70
2024-04-25T13:28:25.836Z,96540.42
2024-04-25T13:30:58.633Z,96541.65
2024-04-25T13:33:31.539Z,96539.94
2024-04-25T13:36:05.992Z,96534.40
2024-04-25T13:38:38.935Z,96538.29
2024-04-25T13:41:13.843Z,96543.79
2024-04-25T13:43:46.861Z,96543.32
2024-04-25T13:46:19.751Z,96539.47
2024-04-25T13:48:56.256Z,96540.96
2024-04-25T13:51:28.873Z,96543.91
2024-04-25T13:54:04.647Z,96541.42
2024-04-25T13:56:39.876Z,96540.08
2024-04-25T13:59:13.265Z,96538.27
2024-04-25T14:01:46.248Z,96537.89
2024-04-25T14:04:19.259Z,96539.05
2024-04-25T14:06:52.168Z,96538.92
2024-04-25T14:09:25.039Z,96536.98
2024-04-25T14:11:58.207Z,96538.48
2024-04-25T14:14:31.298Z,96539.25
2024-04-25T14:17:04.395Z,96538.02
2024-04-25T14:19:38.328Z,96541.95
2024-04-25T14:22:11.050Z,96540.20
2024-04-25T14:24:47.265Z,96538.80
2024-04-25T14:27:35.479Z,96540.77
2024-04-25T14:30:10.578Z,96542.50
2024-04-25T14:32:43.333Z,96542.02
2024-04-25T14:35:17.323Z,96542.60
2024-04-25T14:37:49.948Z,96538.04
2024-04-25T14:40:26.839Z,96536.25
2024-04-25T14:43:00.143Z,96539.31
2024-04-25T14:45:33.256Z,96536.67
2024-04-25T14:48:06.249Z,96536.95
2024-04-25T14:50:39.720Z,96539.09
2024-04-25T14:53:12.357Z,96541.77
2024-04-25T14:55:45.190Z,96542.79
2024-04-25T14:58:17.836Z,96546.13
2024-04-25T15:00:51.867Z,96547.71
2024-04-25T15:03:24.861Z,96549.63
2024-04-25T15:05:57.752Z,96551.69
2024-04-25T15:08:30.435Z,96550.64
2024-04-25T15:11:04.016Z,96555.28
2024-04-25T15:13:37.199Z,96554.55
2024-04-25T15:16:11.422Z,96557.17
2024-04-25T15:18:44.238Z,96556.48
2024-04-25T15:21:19.155Z,96558.70
2024-04-25T15:23:52.189Z,96559.55
2024-04-25T15:26:25.579Z,96565.19
2024-04-25T15:28:58.658Z,96564.63
2024-04-25T15:31:31.670Z,96569.54
2024-04-25T15:34:04.435Z,96570.92
2024-04-25T15:36:38.335Z,96579.00
2024-04-25T15:39:11.046Z,96578.54
2024-04-25T15:41:44.058Z,96581.86
2024-04-25T15:44:17.246Z,96582.03
2024-04-25T15:46:51.093Z,96580.70
2024-04-25T15:49:24.049Z,96586.02
2024-04-25T15:51:56.712Z,96590.69
2024-04-25T15:54:30.085Z,96596.66
2024-04-25T15:57:03.152Z,96597.57
2024-04-25T15:59:36.083Z,96599.69
2024-04-25T16:02:09.405Z,96605.61
2024-04-25T16:04:42.434Z,96609.89
2024-04-25T16:07:15.068Z,96616.66
2024-04-25T16:09:50.287Z,96616.71
2024-04-25T16:12:23.151Z,96622.98
2024-04-25T16:14:57.462Z,96621.80
2024-04-25T16:17:30.590Z,96626.25
2024-04-25T16:20:03.796Z,96627.41
2024-04-25T16:22:36.409Z,96627.50
2024-04-25T16:25:10.948Z,96629.88
2024-04-25T16:27:43.646Z,96633.20
2024-04-25T16:30:17.121Z,96636.08
2024-04-25T16:32:51.313Z,96642.16
2024-04-25T16:35:24.856Z,96646.54
2024-04-25T16:37:57.571Z,96652.83
2024-04-25T16:40:33.069Z,96654.62
2024-04-25T16:43:06.419Z,96657.97
2024-04-25T16:45:40.257Z,96660.31
2024-04-25T16:48:13.416Z,96664.11
2024-04-25T16:50:46.164Z,96670.77
2024-04-25T16:53:20.066Z,96674.84
2024-04-25T16:55:53.010Z,96682.50
2024-04-25T16:58:25.935Z,96683.91
2024-04-25T17:01:00.655Z,96689.59
2024-04-25T17:03:34.585Z,96691.86
2024-04-25T17:06:08.442Z,96698.91
2024-04-25T17:08:41.190Z,96701.75
2024-04-25T17:11:22.946Z,96702.57
2024-04-25T17:13:59.361Z,96706.46
2024-04-25T17:16:32.217Z,96707.88
2024-04-25T17:19:07.013Z,96714.06
2024-04-25T17:21:39.932Z,96712.50
2024-04-25T17:24:13.727Z,96720.44
2024-04-25T17:26:46.693Z,96721.73
2024-04-25T17:29:20.190Z,96722.48
2024-04-25T17:31:53.216Z,96721.67
2024-04-25T17:34:25.895Z,96726.77
2024-04-25T17:36:58.518Z,96721.40
2024-04-25T17:39:31.095Z,96727.73
2024-04-25T17:42:03.932Z,96725.31
2024-04-25T17:44:36.889Z,96730.52
2024-04-25T17:47:12.468Z,96733.22
2024-04-25T17:49:45.208Z,96732.64
2024-04-25T17:52:18.190Z,96738.29
2024-04-25T17:54:50.795Z,96739.89
2024-04-25T17:57:23.495Z,96741.63
2024-04-25T17:59:56.164Z,96739.27
2024-04-25T18:02:31.323Z,96741.58
2024-04-25T18:05:06.430Z,96746.14
2024-04-25T18:07:38.978Z,96747.73
2024-04-25T18:10:12.543Z,96752.52
2024-04-25T18:12:46.376Z,96755.88
2024-04-25T18:15:19.548Z,96757.89
2024-04-25T18:17:52.736Z,96758.23
2024-04-25T18:20:25.888Z,96758.36
2024-04-25T18:22:58.679Z,96763.30
2024-04-25T18:25:31.263Z,96767.25
2024-04-25T18:28:03.908Z,96771.38
2024-04-25T18:30:36.664Z,96772.85
2024-04-25T18:33:09.597Z,96777.73
2024-04-25T18:35:43.311Z,96779.15
2024-04-25T18:38:16.069Z,96779.47
2024-04-25T18:40:48.718Z,96781.34
2024-04-25T18:43:21.259Z,96784.66
2024-04-25T18:45:53.964Z,96784.73
2024-04-25T18:48:26.748Z,96782.68
2024-04-25T18:50:59.626Z,96785.96
2024-04-25T18:53:32.241Z,96785.86
2024-04-25T18:56:05.346Z,96787.48
2024-04-25T18:58:38.674Z,96788.26
2024-04-25T19:01:11.512Z,96794.83
2024-04-25T19:03:44.658Z,96792.69
2024-04-25T19:06:17.563Z,96799.63
2024-04-25T19:08:50.538Z,96802.29
2024-04-25T19:11:27.658Z,96801.89
2024-04-25T19:14:04.304Z,96804.02
2024-04-25T19:16:37.415Z,96805.50
2024-04-25T19:19:11.834Z,96806.80
2024-04-25T19:21:46.272Z,96810.70
2024-04-25T19:24:20.553Z,96813.40
2024-04-25T19:26:53.509Z,96814.16
2024-04-25T19:29:26.616Z,96813.32
2024-04-25T19:32:00.942Z,96819.50
2024-04-25T19:34:33.642Z,96822.86
2024-04-25T19:37:10.917Z,96821.61
2024-04-25T19:39:46.921Z,96826.74
2024-04-25T19:42:21.534Z,96823.92
2024-04-25T19:45:01.399Z,96822.56
2024-04-25T19:47:37.224Z,96822.19
2024-04-25T19:50:12.230Z,96823.20
2024-04-25T19:52:46.779Z,96825.75
2024-04-25T19:55:19.476Z,96826.39
2024-04-25T19:57:53.229Z,96823.55
2024-04-25T20:00:28.761Z,96825.19
2024-04-25T20:03:01.608Z,96829.42
2024-04-25T20:05:34.739Z,96828.66
2024-04-25T20:08:08.159Z,96828.63
2024-04-25T20:10:41.004Z,96830.88
2024-04-25T20:13:14.544Z,96831.41
2024-04-25T20:15:47.409Z,96835.09
2024-04-25T20:18:38.026Z,96836.65
2024-04-25T20:21:11.448Z,96838.43
2024-04-25T20:23:46.916Z,96840.20
2024-04-25T20:26:20.122Z,96844.35
2024-04-25T20:28:52.740Z,96846.00
2024-04-25T20:31:25.375Z,96848.21
2024-04-25T20:33:58.126Z,96847.80
2024-04-25T20:36:31.661Z,96851.17
2024-04-25T20:39:04.511Z,96851.71
2024-04-25T20:41:37.317Z,96857.98
2024-04-25T20:44:11.255Z,96856.48
2024-04-25T20:46:43.954Z,96859.58
2024-04-25T20:49:16.755Z,96860.17
2024-04-25T20:51:49.394Z,96862.83
2024-04-25T20:54:21.917Z,96862.48
2024-04-25T20:56:54.627Z,96865.86
2024-04-25T20:59:27.295Z,96868.35
2024-04-25T21:01:59.958Z,96866.70
2024-04-25T21:04:32.550Z,96859.14
2024-04-25T21:07:05.450Z,96865.16
2024-04-25T21:09:38.170Z,96862.14
2024-04-25T21:12:11.782Z,96859.74
2024-04-25T21:14:46.191Z,96861.14
2024-04-25T21:17:20.248Z,96861.80
2024-04-25T21:19:53.190Z,96861.13
2024-04-25T21:22:25.832Z,96862.56
2024-04-25T21:24:58.686Z,96862.91
2024-04-25T21:27:31.346Z,96863.77
2024-04-25T21:30:04.087Z,96862.28
2024-04-25T21:32:44.550Z,96859.81
2024-04-25T21:35:18.721Z,96860.86
2024-04-25T21:37:52.747Z,96861.95
2024-04-25T21:40:25.382Z,96859.54
2024-04-25T21:42:59.155Z,96857.75
2024-04-25T21:45:35.127Z,96854.58
2024-04-25T21:48:09.143Z,96856.89
2024-04-25T21:50:41.961Z,96853.59
2024-04-25T21:53:14.676Z,96854.64
2024-04-25T21:55:48.993Z,96850.39
2024-04-25T21:58:21.824Z,96852.63
2024-04-25T22:00:54.435Z,96852.58
2024-04-25T22:03:28.027Z,96850.91
2024-04-25T22:06:00.798Z,96852.45
2024-04-25T22:08:34.939Z,96849.02
2024-04-25T22:11:08.297Z,96850.80
2024-04-25T22:13:41.885Z,96852.05
2024-04-25T22:16:15.251Z,96851.83
2024-04-25T22:18:50.706Z,96843.98
2024-04-25T22:21:26.917Z,96842.06
2024-04-25T22:24:00.126Z,96839.44
2024-04-25T22:26:33.093Z,96839.53
2024-04-25T22:29:06.773Z,96838.02
2024-04-25T22:31:39.506Z,96838.66
2024-04-25T22:34:12.263Z,96837.39
2024-04-25T22:36:45.327Z,96838.11
2024-04-25T22:39:18.534Z,96840.89
2024-04-25T22:41:51.266Z,96841.52
2024-04-25T22:44:24.224Z,96842.25
2024-04-25T22:46:56.943Z,96840.25
2024-04-25T22:49:29.532Z,96840.61
2024-04-25T22:52:02.487Z,96837.77
2024-04-25T22:54:35.179Z,96837.67
2024-04-25T22:57:08.900Z,96834.28
2024-04-25T22:59:41.776Z,96834.49
2024-04-25T23:02:14.752Z,96836.98
2024-04-25T23:04:47.395Z,96835.58
2024-04-25T23:07:20.047Z,96837.40
2024-04-25T23:09:52.771Z,96839.11
2024-04-25T23:12:26.167Z,96835.79
2024-04-25T23:14:59.370Z,96836.77
2024-04-25T23:17:32.565Z,96840.92
2024-04-25T23:20:06.050Z,96844.66
2024-04-25T23:22:39.696Z,96844.67
2024-04-25T23:25:13.667Z,96843.77
2024-04-25T23:27:48.245Z,96844.48
2024-04-25T23:30:21.482Z,96843.85
2024-04-25T23:32:56.957Z,96845.66
2024-04-25T23:35:30.081Z,96842.14
2024-04-25T23:38:03.111Z,96842.55
2024-04-25T23:40:35.901Z,96840.82
2024-04-25T23:43:08.605Z,96843.83
2024-04-25T23:45:41.234Z,96839.58
2024-04-25T23:48:13.839Z,96840.36
2024-04-25T23:50:50.476Z,96836.04
2024-04-25T23:53:21.615Z,96836.04
2024-04-25T23:55:54.657Z,96839.02
2024-04-25T23:58:27.706Z,96836.45
